createdAt,value
2022-08-31T00:00:09.303Z,72.30
2022-08-31T00:02:54.660Z,72.20
2022-08-31T00:05:21.714Z,72.40
2022-08-31T00:07:48.311Z,72.40
2022-08-31T00:10:15.850Z,72.50
2022-08-31T00:12:43.447Z,72.50
2022-08-31T00:15:13.095Z,72.50
2022-08-31T00:17:40.409Z,72.50
2022-08-31T00:20:08.796Z,72.50
2022-08-31T00:22:55.817Z,72.70
2022-08-31T00:25:23.991Z,72.70
2022-08-31T00:27:50.565Z,72.80
2022-08-31T00:30:17.289Z,72.70
2022-08-31T00:32:43.868Z,72.80
2022-08-31T00:35:10.500Z,72.90
2022-08-31T00:37:37.164Z,72.70
2022-08-31T00:40:05.366Z,72.80
2022-08-31T00:42:32.788Z,72.90
2022-08-31T00:44:59.353Z,72.90
2022-08-31T00:47:26.127Z,73.00
2022-08-31T00:49:53.299Z,72.80
2022-08-31T00:52:27.304Z,72.90
2022-08-31T00:55:01.807Z,73.60
2022-08-31T00:57:35.109Z,72.90
2022-08-31T01:00:05.162Z,73.00
2022-08-31T01:02:31.940Z,73.00
2022-08-31T01:04:58.743Z,73.00
2022-08-31T01:07:26.414Z,73.00
2022-08-31T01:09:56.114Z,73.00
2022-08-31T01:12:23.559Z,73.00
2022-08-31T01:14:50.240Z,73.00
2022-08-31T01:17:17.579Z,73.00
2022-08-31T01:20:09.787Z,73.00
2022-08-31T01:23:02.966Z,73.00
2022-08-31T01:25:33.556Z,73.10
2022-08-31T01:28:04.473Z,73.10
2022-08-31T01:30:31.827Z,73.10
2022-08-31T01:32:58.473Z,73.10
2022-08-31T01:35:26.006Z,73.10
2022-08-31T01:37:53.087Z,73.10
2022-08-31T01:40:19.990Z,73.10
2022-08-31T01:42:46.605Z,73.00
2022-08-31T01:45:13.270Z,73.10
2022-08-31T01:47:40.498Z,73.00
2022-08-31T01:50:08.569Z,73.00
2022-08-31T01:52:37.641Z,73.00
2022-08-31T01:55:06.411Z,73.00
2022-08-31T01:57:34.457Z,73.00
2022-08-31T02:00:08.546Z,73.00
2022-08-31T02:02:35.267Z,73.00
2022-08-31T02:05:02.023Z,72.90
2022-08-31T02:07:28.726Z,72.90
2022-08-31T02:09:55.395Z,72.90
2022-08-31T02:12:22.037Z,72.90
2022-08-31T02:14:48.663Z,72.90
2022-08-31T02:17:15.514Z,72.80
2022-08-31T02:19:42.088Z,72.80
2022-08-31T02:22:08.643Z,72.80
2022-08-31T02:24:35.380Z,72.70
2022-08-31T02:27:01.955Z,72.70
2022-08-31T02:29:28.937Z,72.70
2022-08-31T02:31:56.853Z,72.70
2022-08-31T02:34:23.513Z,72.60
2022-08-31T02:36:50.093Z,72.60
2022-08-31T02:39:16.916Z,72.50
2022-08-31T02:41:46.369Z,72.50
2022-08-31T02:44:13.091Z,72.40
2022-08-31T02:46:39.861Z,72.40
2022-08-31T02:49:06.613Z,72.40
2022-08-31T02:51:33.220Z,72.30
2022-08-31T02:54:00.003Z,72.30
2022-08-31T02:56:26.626Z,72.30
2022-08-31T02:58:57.661Z,72.30
2022-08-31T03:01:24.613Z,72.10
2022-08-31T03:03:51.267Z,72.10
2022-08-31T03:06:19.220Z,72.10
2022-08-31T03:08:46.572Z,72.10
2022-08-31T03:11:13.715Z,72.10
2022-08-31T03:13:41.386Z,72.10
2022-08-31T03:16:09.029Z,71.90
2022-08-31T03:18:35.763Z,71.90
2022-08-31T03:21:02.430Z,72.50
2022-08-31T03:23:29.175Z,71.80
2022-08-31T03:25:55.871Z,71.70
2022-08-31T03:28:22.697Z,71.70
2022-08-31T03:30:49.619Z,71.60
2022-08-31T03:33:16.599Z,71.50
2022-08-31T03:35:44.125Z,71.40
2022-08-31T03:38:12.789Z,71.40
2022-08-31T03:40:41.652Z,71.30
2022-08-31T03:43:11.063Z,71.30
2022-08-31T03:45:39.987Z,71.20
2022-08-31T03:48:12.032Z,71.10
2022-08-31T03:50:40.360Z,71.00
2022-08-31T03:53:07.936Z,70.90
2022-08-31T03:55:36.953Z,70.90
2022-08-31T03:58:04.225Z,70.80
2022-08-31T04:00:31.616Z,70.80
2022-08-31T04:02:59.782Z,70.70
2022-08-31T04:05:27.918Z,70.60
2022-08-31T04:07:55.256Z,70.60
2022-08-31T04:10:22.932Z,70.60
2022-08-31T04:12:50.269Z,70.60
2022-08-31T04:15:17.721Z,70.50
2022-08-31T04:17:47.843Z,70.50
2022-08-31T04:20:14.675Z,71.20
2022-08-31T04:22:41.379Z,70.40
2022-08-31T04:25:10.198Z,70.30
2022-08-31T04:27:38.132Z,70.20
2022-08-31T04:30:08.551Z,69.50
2022-08-31T04:32:35.662Z,71.80
2022-08-31T04:35:03.579Z,73.70
2022-08-31T04:37:30.777Z,74.20
2022-08-31T04:39:59.349Z,74.90
2022-08-31T04:42:26.256Z,75.30
2022-08-31T04:44:52.945Z,75.50
2022-08-31T04:47:20.295Z,75.60
2022-08-31T04:49:47.621Z,75.80
2022-08-31T04:52:14.266Z,76.00
2022-08-31T04:54:40.861Z,76.20
2022-08-31T04:57:07.520Z,76.30
2022-08-31T04:59:34.317Z,76.60
2022-08-31T05:02:01.026Z,76.50
2022-08-31T05:04:28.988Z,76.50
2022-08-31T05:06:56.207Z,76.40
2022-08-31T05:09:23.503Z,76.60
2022-08-31T05:11:52.112Z,75.40
2022-08-31T05:14:19.113Z,74.10
2022-08-31T05:16:46.638Z,73.20
2022-08-31T05:19:13.602Z,72.60
2022-08-31T05:21:42.711Z,72.20
2022-08-31T05:24:13.909Z,71.90
2022-08-31T05:26:48.149Z,71.60
2022-08-31T05:29:16.558Z,71.30
2022-08-31T05:31:45.511Z,71.20
2022-08-31T05:34:15.039Z,71.00
2022-08-31T05:36:43.020Z,71.00
2022-08-31T05:39:11.775Z,71.00
2022-08-31T05:41:44.099Z,70.80
2022-08-31T05:44:11.482Z,70.80
2022-08-31T05:46:38.650Z,70.60
2022-08-31T05:49:07.259Z,70.60
2022-08-31T05:51:38.472Z,70.50
2022-08-31T05:54:05.654Z,70.50
2022-08-31T05:56:32.306Z,70.50
2022-08-31T05:58:58.988Z,70.40
2022-08-31T06:01:30.425Z,70.40
2022-08-31T06:03:58.250Z,70.40
2022-08-31T06:06:25.648Z,70.40
2022-08-31T06:08:52.600Z,70.30
2022-08-31T06:11:22.062Z,70.30
2022-08-31T06:13:52.585Z,70.30
2022-08-31T06:16:20.515Z,70.30
2022-08-31T06:18:50.745Z,70.30
2022-08-31T06:21:20.969Z,70.10
2022-08-31T06:23:49.863Z,70.20
2022-08-31T06:26:19.305Z,70.80
2022-08-31T06:28:48.537Z,70.10
2022-08-31T06:31:19.783Z,70.10
2022-08-31T06:33:47.547Z,70.10
2022-08-31T06:36:17.017Z,70.10
2022-08-31T06:38:44.737Z,70.10
2022-08-31T06:41:17.058Z,70.10
2022-08-31T06:43:44.418Z,70.10
2022-08-31T06:46:12.497Z,70.10
2022-08-31T06:48:39.136Z,71.30
2022-08-31T06:51:06.983Z,73.80
2022-08-31T06:53:34.742Z,74.90
2022-08-31T06:56:06.281Z,75.70
2022-08-31T06:58:48.028Z,76.20
2022-08-31T07:01:32.619Z,76.70
2022-08-31T07:04:05.407Z,76.50
2022-08-31T07:06:36.444Z,77.10
2022-08-31T07:09:05.686Z,77.20
2022-08-31T07:11:44.119Z,77.10
2022-08-31T07:14:13.622Z,77.50
2022-08-31T07:16:41.250Z,77.30
2022-08-31T07:19:09.564Z,77.50
2022-08-31T07:21:47.797Z,77.60
2022-08-31T07:24:18.254Z,77.70
2022-08-31T07:26:50.186Z,77.90
2022-08-31T07:29:18.807Z,77.60
2022-08-31T07:31:48.597Z,77.50
2022-08-31T07:34:27.888Z,77.50
2022-08-31T07:37:15.084Z,77.50
2022-08-31T07:40:06.182Z,77.70
2022-08-31T07:42:40.092Z,78.00
2022-08-31T07:45:12.040Z,78.10
2022-08-31T07:47:45.081Z,77.90
2022-08-31T07:50:13.092Z,77.60
2022-08-31T07:52:47.022Z,77.40
2022-08-31T07:55:15.410Z,77.50
2022-08-31T07:57:44.163Z,77.30
2022-08-31T08:00:17.981Z,77.00
2022-08-31T08:02:52.818Z,77.00
2022-08-31T08:05:27.435Z,76.90
2022-08-31T08:07:58.660Z,76.40
2022-08-31T08:10:26.098Z,76.20
2022-08-31T08:13:05.183Z,76.50
2022-08-31T08:15:35.776Z,75.80
2022-08-31T08:18:03.315Z,76.20
2022-08-31T08:20:34.316Z,76.40
2022-08-31T08:23:13.897Z,76.00
2022-08-31T08:25:41.485Z,75.80
2022-08-31T08:28:35.816Z,76.10
2022-08-31T08:31:04.425Z,75.70
2022-08-31T08:33:33.494Z,75.80
2022-08-31T08:36:03.132Z,76.10
2022-08-31T08:38:31.117Z,76.20
2022-08-31T08:41:06.100Z,75.60
2022-08-31T08:43:37.180Z,76.20
2022-08-31T08:46:25.235Z,75.90
2022-08-31T08:48:55.940Z,75.80
2022-08-31T08:51:41.369Z,75.50
2022-08-31T08:54:14.980Z,75.80
2022-08-31T08:56:47.557Z,75.80
2022-08-31T08:59:20.038Z,76.20
2022-08-31T09:01:49.285Z,76.10
2022-08-31T09:04:30.847Z,76.20
2022-08-31T09:07:21.009Z,76.10
2022-08-31T09:10:11.957Z,76.10
2022-08-31T09:13:10.888Z,75.90
2022-08-31T09:16:08.749Z,76.00
2022-08-31T09:18:44.692Z,75.90
2022-08-31T09:21:28.764Z,75.90
2022-08-31T09:24:01.373Z,75.90
2022-08-31T09:26:32.678Z,75.90
2022-08-31T09:29:00.108Z,75.60
2022-08-31T09:31:34.457Z,75.20
2022-08-31T09:34:02.511Z,75.40
2022-08-31T09:36:37.753Z,75.30
2022-08-31T09:39:15.267Z,75.20
2022-08-31T09:41:42.001Z,75.10
2022-08-31T09:44:31.575Z,76.00
2022-08-31T09:47:02.677Z,74.80
2022-08-31T09:49:38.685Z,74.90
2022-08-31T09:52:42.491Z,74.90
2022-08-31T09:55:13.446Z,74.90
2022-08-31T09:57:53.028Z,75.00
2022-08-31T10:00:38.863Z,75.10
2022-08-31T10:03:28.284Z,75.00
2022-08-31T10:05:55.508Z,75.20
2022-08-31T10:08:31.268Z,75.20
2022-08-31T10:11:03.066Z,75.00
2022-08-31T10:13:43.896Z,75.10
2022-08-31T10:16:44.575Z,75.10
2022-08-31T10:19:20.309Z,75.20
2022-08-31T10:22:04.658Z,75.10
2022-08-31T10:24:43.642Z,75.10
2022-08-31T10:27:13.213Z,75.10
2022-08-31T10:29:51.785Z,75.20
2022-08-31T10:32:50.445Z,75.30
2022-08-31T10:35:26.190Z,75.00
2022-08-31T10:38:19.929Z,74.60
2022-08-31T10:41:02.629Z,74.90
2022-08-31T10:43:55.239Z,74.90
2022-08-31T10:46:21.906Z,74.90
2022-08-31T10:48:54.349Z,74.80
2022-08-31T10:51:58.612Z,75.10
2022-08-31T10:55:07.902Z,75.10
2022-08-31T10:57:45.801Z,74.80
2022-08-31T11:00:39.580Z,74.90
2022-08-31T11:03:27.648Z,74.70
2022-08-31T11:06:06.647Z,74.60
2022-08-31T11:08:57.424Z,74.60
2022-08-31T11:11:47.428Z,74.60
2022-08-31T11:14:45.163Z,74.40
2022-08-31T11:17:28.060Z,74.60
2022-08-31T11:20:33.085Z,74.70
2022-08-31T11:23:26.812Z,74.70
2022-08-31T11:25:56.520Z,74.70
2022-08-31T11:28:33.962Z,74.80
2022-08-31T11:31:06.906Z,74.80
2022-08-31T11:33:34.451Z,75.00
2022-08-31T11:36:07.557Z,74.70
2022-08-31T11:39:03.517Z,74.80
2022-08-31T11:41:46.562Z,75.10
2022-08-31T11:44:33.129Z,75.20
2022-08-31T11:47:05.797Z,74.80
2022-08-31T11:49:50.762Z,74.50
2022-08-31T11:52:48.187Z,74.40
2022-08-31T11:55:27.137Z,74.50
2022-08-31T11:58:07.318Z,74.30
2022-08-31T12:01:03.661Z,74.40
2022-08-31T12:03:39.335Z,74.40
2022-08-31T12:06:28.005Z,74.40
2022-08-31T12:09:22.302Z,74.50
2022-08-31T12:11:55.220Z,74.00
2022-08-31T12:14:34.001Z,74.20
2022-08-31T12:17:25.263Z,74.20
2022-08-31T12:20:12.629Z,74.10
2022-08-31T12:23:30.149Z,74.40
2022-08-31T12:26:16.038Z,74.00
2022-08-31T12:29:01.388Z,74.00
2022-08-31T12:31:28.267Z,73.90
2022-08-31T12:34:17.893Z,74.10
2022-08-31T12:36:44.687Z,73.20
2022-08-31T12:39:23.489Z,73.60
2022-08-31T12:41:54.028Z,73.80
2022-08-31T12:44:24.253Z,73.80
2022-08-31T12:47:08.684Z,73.60
2022-08-31T12:49:41.274Z,73.70
2022-08-31T12:52:45.247Z,73.90
2022-08-31T12:55:29.777Z,73.80
2022-08-31T12:58:12.605Z,73.50
2022-08-31T13:00:43.301Z,73.60
2022-08-31T13:03:31.037Z,73.40
2022-08-31T13:06:13.474Z,73.10
2022-08-31T13:08:43.722Z,73.30
2022-08-31T13:11:42.455Z,73.10
2022-08-31T13:14:08.967Z,73.30
2022-08-31T13:16:38.690Z,73.00
2022-08-31T13:19:06.678Z,72.80
2022-08-31T13:21:35.760Z,72.60
2022-08-31T13:24:10.216Z,73.00
2022-08-31T13:26:38.432Z,72.90
2022-08-31T13:29:08.163Z,71.20
2022-08-31T13:31:46.372Z,71.70
2022-08-31T13:34:13.388Z,70.90
2022-08-31T13:36:53.247Z,69.30
2022-08-31T13:39:29.528Z,70.00
2022-08-31T13:42:10.218Z,70.60
2022-08-31T13:44:42.264Z,70.80
2022-08-31T13:47:30.635Z,70.90
2022-08-31T13:50:21.762Z,71.70
2022-08-31T13:53:24.880Z,71.40
2022-08-31T13:55:44.530Z,71.50
2022-08-31T13:58:29.111Z,71.30
2022-08-31T14:01:18.920Z,70.70
2022-08-31T14:03:55.514Z,71.60
2022-08-31T14:06:38.632Z,70.70
2022-08-31T14:09:14.672Z,70.90
2022-08-31T14:12:01.182Z,71.10
2022-08-31T14:14:39.636Z,70.60
2022-08-31T14:17:08.242Z,70.70
2022-08-31T14:19:39.551Z,70.90
2022-08-31T14:22:33.011Z,70.90
2022-08-31T14:25:00.781Z,70.70
2022-08-31T14:27:28.585Z,70.90
2022-08-31T14:29:55.761Z,71.00
2022-08-31T14:32:22.638Z,71.40
2022-08-31T14:34:50.929Z,71.20
2022-08-31T14:37:23.059Z,71.30
2022-08-31T14:39:51.775Z,71.40
2022-08-31T14:42:25.239Z,71.40
2022-08-31T14:45:02.884Z,71.60
2022-08-31T14:47:36.065Z,71.70
2022-08-31T14:50:07.386Z,71.70
2022-08-31T14:52:35.590Z,71.70
2022-08-31T14:55:02.652Z,71.70
2022-08-31T14:57:32.487Z,71.70
2022-08-31T15:00:01.964Z,71.70
2022-08-31T15:02:33.269Z,71.40
2022-08-31T15:05:06.301Z,71.50
2022-08-31T15:07:36.159Z,71.70
2022-08-31T15:10:06.632Z,71.80
2022-08-31T15:12:34.397Z,72.00
2022-08-31T15:15:01.389Z,71.90
2022-08-31T15:17:33.553Z,71.80
2022-08-31T15:20:03.194Z,71.90
2022-08-31T15:22:31.183Z,71.80
2022-08-31T15:24:57.951Z,72.00
2022-08-31T15:27:28.489Z,72.00
2022-08-31T15:30:01.223Z,72.00
2022-08-31T15:32:27.834Z,71.80
2022-08-31T15:34:57.927Z,71.80
2022-08-31T15:37:32.102Z,71.70
2022-08-31T15:40:00.812Z,71.80
2022-08-31T15:42:29.473Z,71.80
2022-08-31T15:44:56.712Z,71.90
2022-08-31T15:47:44.413Z,71.90
2022-08-31T15:50:11.715Z,71.80
2022-08-31T15:52:43.825Z,71.80
2022-08-31T15:55:16.190Z,71.70
2022-08-31T15:57:43.861Z,71.80
2022-08-31T16:00:14.057Z,71.70
2022-08-31T16:02:41.698Z,71.80
2022-08-31T16:05:09.846Z,71.60
2022-08-31T16:07:37.172Z,71.60
2022-08-31T16:10:11.291Z,71.60
2022-08-31T16:12:39.423Z,71.70
2022-08-31T16:15:09.975Z,71.60
2022-08-31T16:17:40.845Z,71.40
2022-08-31T16:20:08.947Z,71.40
2022-08-31T16:22:36.217Z,71.30
2022-08-31T16:25:06.530Z,71.20
2022-08-31T16:27:34.052Z,71.50
2022-08-31T16:30:00.989Z,71.50
2022-08-31T16:32:27.777Z,71.40
2022-08-31T16:34:54.823Z,71.30
2022-08-31T16:37:21.696Z,71.20
2022-08-31T16:39:48.504Z,71.60
2022-08-31T16:42:16.135Z,71.30
2022-08-31T16:44:45.906Z,71.20
2022-08-31T16:47:15.289Z,71.30
2022-08-31T16:49:43.662Z,71.30
2022-08-31T16:52:14.765Z,71.20
2022-08-31T16:54:45.032Z,71.20
2022-08-31T16:57:14.068Z,71.20
2022-08-31T16:59:41.449Z,71.30
2022-08-31T17:02:11.729Z,71.20
2022-08-31T17:04:52.903Z,71.20
2022-08-31T17:07:21.872Z,71.10
2022-08-31T17:09:49.046Z,71.20
2022-08-31T17:12:21.660Z,71.20
2022-08-31T17:14:52.390Z,71.10
2022-08-31T17:17:23.171Z,71.20
2022-08-31T17:19:52.164Z,71.40
2022-08-31T17:22:27.018Z,71.20
2022-08-31T17:24:58.606Z,71.30
2022-08-31T17:27:26.875Z,71.30
2022-08-31T17:29:56.125Z,71.30
2022-08-31T17:32:26.354Z,71.30
2022-08-31T17:34:54.670Z,71.20
2022-08-31T17:37:28.382Z,71.20
2022-08-31T17:39:56.120Z,71.30
2022-08-31T17:42:26.908Z,70.90
2022-08-31T17:44:55.990Z,68.50
2022-08-31T17:47:25.067Z,68.60
2022-08-31T17:49:52.774Z,69.00
2022-08-31T17:52:21.702Z,69.00
2022-08-31T17:54:50.911Z,67.60
2022-08-31T17:57:22.265Z,67.50
2022-08-31T17:59:49.314Z,67.60
2022-08-31T18:02:27.602Z,67.60
2022-08-31T18:04:54.902Z,67.40
2022-08-31T18:07:21.838Z,66.60
2022-08-31T18:09:48.709Z,67.20
2022-08-31T18:12:18.042Z,67.00
2022-08-31T18:14:44.752Z,66.90
2022-08-31T18:17:16.100Z,66.80
2022-08-31T18:19:43.646Z,67.00
2022-08-31T18:22:12.799Z,66.70
2022-08-31T18:24:40.067Z,67.20
2022-08-31T18:27:11.164Z,67.00
2022-08-31T18:29:39.363Z,67.30
2022-08-31T18:32:08.365Z,67.10
2022-08-31T18:34:40.070Z,66.70
2022-08-31T18:37:07.882Z,67.30
2022-08-31T18:39:53.105Z,66.70
2022-08-31T18:42:40.013Z,67.10
2022-08-31T18:45:20.623Z,66.70
2022-08-31T18:48:20.968Z,67.10
2022-08-31T18:50:46.423Z,67.70
2022-08-31T18:53:27.579Z,67.80
2022-08-31T18:56:17.611Z,67.80
2022-08-31T18:58:44.383Z,68.00
2022-08-31T19:01:13.258Z,68.00
2022-08-31T19:03:41.103Z,67.90
2022-08-31T19:06:08.212Z,67.70
2022-08-31T19:08:35.406Z,67.20
2022-08-31T19:11:07.163Z,67.70
2022-08-31T19:13:34.377Z,67.90
2022-08-31T19:16:07.896Z,67.40
2022-08-31T19:18:41.715Z,68.00
2022-08-31T19:21:30.200Z,67.70
2022-08-31T19:24:00.214Z,67.70
2022-08-31T19:26:31.137Z,67.70
2022-08-31T19:28:58.896Z,67.40
2022-08-31T19:31:27.280Z,68.10
2022-08-31T19:33:57.565Z,68.20
2022-08-31T19:36:25.060Z,68.80
2022-08-31T19:38:53.975Z,68.70
2022-08-31T19:41:25.797Z,69.20
2022-08-31T19:44:02.995Z,68.60
2022-08-31T19:46:34.345Z,68.60
2022-08-31T19:49:01.094Z,68.30
2022-08-31T19:51:29.372Z,68.50
2022-08-31T19:53:56.514Z,68.30
2022-08-31T19:56:25.709Z,68.30
2022-08-31T19:58:53.867Z,68.20
2022-08-31T20:01:25.100Z,67.80
2022-08-31T20:03:53.163Z,67.50
2022-08-31T20:06:20.955Z,67.50
2022-08-31T20:08:49.348Z,67.00
2022-08-31T20:11:21.735Z,67.10
2022-08-31T20:13:49.587Z,66.90
2022-08-31T20:16:17.425Z,66.80
2022-08-31T20:18:46.376Z,66.40
2022-08-31T20:21:18.855Z,66.10
2022-08-31T20:23:47.921Z,65.90
2022-08-31T20:26:16.471Z,65.80
2022-08-31T20:28:44.780Z,65.70
2022-08-31T20:31:11.967Z,65.70
2022-08-31T20:33:39.079Z,65.50
2022-08-31T20:36:18.666Z,66.00
2022-08-31T20:38:47.464Z,66.10
2022-08-31T20:41:14.721Z,65.20
2022-08-31T20:43:44.532Z,65.40
2022-08-31T20:46:32.704Z,64.80
2022-08-31T20:49:18.289Z,65.20
2022-08-31T20:51:45.203Z,64.50
2022-08-31T20:54:12.633Z,64.90
2022-08-31T20:56:39.508Z,65.50
2022-08-31T20:59:10.279Z,65.10
2022-08-31T21:01:38.449Z,65.70
2022-08-31T21:04:07.853Z,65.60
2022-08-31T21:06:39.038Z,65.50
2022-08-31T21:09:08.022Z,65.40
2022-08-31T21:11:36.966Z,65.40
2022-08-31T21:14:03.897Z,65.50
2022-08-31T21:16:32.154Z,65.70
2022-08-31T21:18:58.929Z,65.80
2022-08-31T21:21:26.651Z,66.00
2022-08-31T21:23:53.196Z,65.90
2022-08-31T21:26:24.334Z,66.10
2022-08-31T21:28:52.512Z,66.00
2022-08-31T21:31:28.996Z,66.10
2022-08-31T21:34:01.850Z,66.30
2022-08-31T21:36:29.856Z,66.30
2022-08-31T21:39:00.552Z,66.50
2022-08-31T21:41:28.888Z,66.30
2022-08-31T21:43:56.892Z,66.40
2022-08-31T21:46:26.227Z,66.30
2022-08-31T21:48:54.832Z,66.10
2022-08-31T21:51:25.543Z,66.20
2022-08-31T21:53:57.037Z,66.10
2022-08-31T21:56:25.817Z,65.40
2022-08-31T21:58:52.853Z,65.40
2022-08-31T22:03:57.514Z,65.20
2022-08-31T22:06:28.997Z,65.30
2022-08-31T22:08:59.988Z,65.20
2022-08-31T22:11:29.941Z,65.10
2022-08-31T22:13:58.513Z,65.00
2022-08-31T22:16:26.238Z,65.60
2022-08-31T22:19:01.246Z,65.00
2022-08-31T22:21:31.859Z,64.80
2022-08-31T22:24:01.267Z,65.40
2022-08-31T22:26:30.041Z,65.40
2022-08-31T22:28:56.920Z,64.80
2022-08-31T22:31:25.156Z,64.60
2022-08-31T22:33:52.148Z,64.70
2022-08-31T22:36:30.987Z,64.50
2022-08-31T22:39:03.030Z,65.00
2022-08-31T22:41:31.902Z,64.60
2022-08-31T22:43:59.411Z,64.40
2022-08-31T22:46:26.636Z,64.80
2022-08-31T22:48:53.264Z,64.70
2022-08-31T22:51:22.503Z,64.00
2022-08-31T22:53:51.456Z,64.00
2022-08-31T22:56:20.853Z,64.10
2022-08-31T22:58:48.949Z,64.60
2022-08-31T23:01:20.536Z,63.70
2022-08-31T23:03:51.172Z,63.70
2022-08-31T23:06:20.100Z,63.90
2022-08-31T23:08:48.839Z,63.70
2022-08-31T23:11:18.905Z,63.70
2022-08-31T23:13:52.993Z,63.80
2022-08-31T23:16:24.678Z,63.60
2022-08-31T23:18:52.880Z,63.60
2022-08-31T23:21:19.697Z,63.50
2022-08-31T23:23:46.351Z,63.30
2022-08-31T23:26:12.973Z,63.20
2022-08-31T23:28:40.270Z,63.20
2022-08-31T23:31:07.562Z,63.80
2022-08-31T23:33:35.882Z,63.20
2022-08-31T23:36:03.613Z,63.10
2022-08-31T23:38:32.282Z,63.20
2022-08-31T23:43:27.389Z,63.00
2022-08-31T23:45:59.429Z,63.20
2022-08-31T23:48:26.046Z,63.90
2022-08-31T23:50:52.878Z,63.50
2022-08-31T23:53:19.451Z,63.50
2022-08-31T23:55:47.551Z,63.00
2022-08-31T23:58:17.365Z,62.90
